Huvudsida
METAR-TAF:

METAR-TAF

Flygplatser :

Wellington International Airport

Wellington, Nya Zeeland

latitud: 41-20S, longitud: 174-48E, höjd: 12 m

Aktuellt väderrapport

Denna rapport gjordes för 31 minuter sedan, klockan 13:00 UTC
Vind 6 kt från syd
Temperatur 11°C
Fuktighet 71%
Tryck 1032 hPa
Sikt 10 km eller mer

METAR: NZWN 151300Z AUTO 19006KT 9999 FEW025/// SCT034/// BKN044/// 11/06 Q1032 BECMG 01008KT

Tid: 02:31 (13:31 UTC)

Väderprognos

Denna rapport gjordes för 2 timmar och 29 minuter sedan, klockan 11:02 UTC
Prognos gäller från 15 kl. 12 UTC till 16 kl. 12 UTC
Vind 10 kt från syd
Sikt 10 km eller mer
Brutna moln på en höjd av 2000 ft
Blir
från 15 kl. 12 UTC till 15 kl. 14 UTC
Vind 8 kt från nord
Blir
från 16 kl. 00 UTC till 16 kl. 02 UTC
Vind 18 kt från nord i byarna ända upp till 30 kt
Blir
från 16 kl. 10 UTC till 16 kl. 12 UTC
Vind 12 kt från nord

TAF: NZWN 151102Z 1512/1612 18010KT 9999 BKN020 BECMG 1512/1514 01008KT BECMG 1600/1602 36018G30KT BECMG 1610/1612 36012KT

Aktuella väderrapporter och prognoser från 4000 flygplatser (METAR- och TAF-rapporter).

De tillgängliga stationerna syns som gula och röda prickar på kartan.

För musen över prickarna för att se namnen på stationerna.

Klicka sedan för att få väderrapporter och prognoser.

För att ändra kartan: Klicka på de gröna knapparna med ett svart kors på för att zooma in; den gröna knappen med ett streck på för att zooma ut; eller på de gröna pilarna för angränsande kartor.


METAR-TAF: